createdAt,value
2023-04-07T00:00:28.523Z,9.40
2023-04-07T00:01:29.971Z,9.40
2023-04-07T00:02:32.819Z,9.40
2023-04-07T00:03:34.777Z,9.50
2023-04-07T00:04:36.439Z,9.40
2023-04-07T00:05:38.154Z,9.40
2023-04-07T00:06:40.709Z,9.40
2023-04-07T00:07:52.385Z,9.40
2023-04-07T00:08:57.652Z,9.40
2023-04-07T00:09:59.470Z,9.40
2023-04-07T00:11:00.967Z,9.40
2023-04-07T00:12:02.812Z,9.40
2023-04-07T00:13:04.345Z,9.40
2023-04-07T00:14:05.884Z,9.30
2023-04-07T00:15:07.925Z,9.30
2023-04-07T00:16:09.371Z,9.30
2023-04-07T00:17:10.941Z,9.30
2023-04-07T00:18:12.521Z,9.30
2023-04-07T00:19:13.979Z,9.30
2023-04-07T00:20:15.644Z,9.30
2023-04-07T00:21:17.066Z,9.30
2023-04-07T00:22:18.507Z,9.20
2023-04-07T00:23:20.009Z,9.20
2023-04-07T00:24:31.504Z,9.20
2023-04-07T00:25:35.625Z,9.10
2023-04-07T00:26:37.084Z,9.10
2023-04-07T00:27:38.673Z,9.10
2023-04-07T00:28:40.710Z,9.10
2023-04-07T00:29:43.803Z,9.10
2023-04-07T00:30:45.842Z,9.00
2023-04-07T00:31:47.419Z,9.00
2023-04-07T00:32:49.284Z,9.00
2023-04-07T00:33:51.233Z,8.90
2023-04-07T00:34:52.667Z,9.00
2023-04-07T00:35:54.495Z,8.90
2023-04-07T00:36:56.288Z,8.90
2023-04-07T00:37:58.240Z,8.90
2023-04-07T00:38:59.747Z,8.90
2023-04-07T00:40:01.443Z,8.90
2023-04-07T00:41:02.875Z,8.90
2023-04-07T00:42:05.682Z,8.90
2023-04-07T00:43:08.013Z,8.90
2023-04-07T00:44:09.423Z,8.80
2023-04-07T00:45:11.437Z,8.90
2023-04-07T00:46:12.976Z,8.90
2023-04-07T00:47:15.869Z,8.80
2023-04-07T00:48:17.436Z,8.80
2023-04-07T00:49:19.013Z,8.80
2023-04-07T00:50:20.659Z,8.80
2023-04-07T00:51:22.720Z,8.70
2023-04-07T00:52:28.690Z,8.80
2023-04-07T00:53:30.342Z,8.80
2023-04-07T00:54:32.017Z,8.70
2023-04-07T00:55:33.768Z,8.70
2023-04-07T00:56:35.740Z,8.60
2023-04-07T00:57:38.077Z,8.60
2023-04-07T00:58:40.930Z,8.60
2023-04-07T00:59:42.384Z,8.60
2023-04-07T01:00:56.454Z,8.60
2023-04-07T01:02:37.186Z,8.60
2023-04-07T01:03:58.273Z,8.50
2023-04-07T01:05:23.502Z,8.60
2023-04-07T01:06:30.317Z,8.60
2023-04-07T01:08:06.364Z,8.50
2023-04-07T01:09:38.495Z,8.60
2023-04-07T01:11:20.033Z,8.60
2023-04-07T01:12:38.546Z,8.50
2023-04-07T01:13:54.031Z,8.50
2023-04-07T01:15:24.281Z,8.50
2023-04-07T01:16:42.634Z,8.50
2023-04-07T01:17:50.056Z,8.50
2023-04-07T01:18:54.846Z,8.60
2023-04-07T01:20:01.877Z,8.50
2023-04-07T01:21:07.692Z,8.50
2023-04-07T01:22:24.036Z,8.50
2023-04-07T01:24:10.103Z,8.50
2023-04-07T01:25:23.435Z,8.50
2023-04-07T01:26:29.802Z,8.60
2023-04-07T01:27:56.237Z,8.60
2023-04-07T01:29:26.034Z,8.60
2023-04-07T01:30:33.231Z,8.50
2023-04-07T01:31:39.353Z,8.50
2023-04-07T01:32:45.288Z,8.50
2023-04-07T01:33:48.746Z,8.50
2023-04-07T01:34:52.363Z,8.60
2023-04-07T01:35:55.912Z,8.50
2023-04-07T01:37:01.463Z,8.60
2023-04-07T01:38:04.813Z,8.60
2023-04-07T01:39:07.713Z,8.60
2023-04-07T01:40:10.292Z,8.60
2023-04-07T01:41:14.729Z,8.60
2023-04-07T01:42:19.031Z,8.60
2023-04-07T01:43:21.614Z,8.60
2023-04-07T01:44:24.680Z,8.70
2023-04-07T01:45:27.506Z,8.70
2023-04-07T01:46:29.188Z,8.70
2023-04-07T01:47:32.398Z,8.70
2023-04-07T01:48:36.313Z,8.70
2023-04-07T01:49:40.729Z,8.70
2023-04-07T01:50:44.138Z,8.70
2023-04-07T01:51:50.310Z,8.70
2023-04-07T01:52:53.628Z,8.60
2023-04-07T01:53:56.201Z,8.70
2023-04-07T01:54:58.318Z,8.60
2023-04-07T01:56:00.527Z,8.60
2023-04-07T01:57:02.437Z,8.70
2023-04-07T01:58:07.675Z,8.60
2023-04-07T01:59:12.091Z,8.60
2023-04-07T02:00:14.262Z,8.60
2023-04-07T02:01:22.040Z,8.60
2023-04-07T02:02:23.950Z,8.60
2023-04-07T02:03:40.036Z,8.60
2023-04-07T02:04:53.798Z,8.60
2023-04-07T02:06:02.827Z,8.60
2023-04-07T02:07:19.751Z,8.60
2023-04-07T02:08:27.100Z,8.60
2023-04-07T02:09:31.753Z,8.60
2023-04-07T02:10:36.382Z,8.60
2023-04-07T02:11:39.838Z,8.60
2023-04-07T02:12:42.544Z,8.60
2023-04-07T02:13:52.565Z,8.50
2023-04-07T02:14:56.654Z,8.50
2023-04-07T02:15:59.072Z,8.50
2023-04-07T02:17:02.518Z,8.50
2023-04-07T02:18:05.042Z,8.60
2023-04-07T02:19:06.641Z,8.50
2023-04-07T02:20:10.339Z,8.50
2023-04-07T02:21:15.187Z,8.60
2023-04-07T02:22:19.962Z,8.50
2023-04-07T02:23:21.828Z,8.50
2023-04-07T02:24:23.315Z,8.40
2023-04-07T02:25:27.195Z,8.40
2023-04-07T02:26:34.281Z,8.40
2023-04-07T02:27:36.994Z,8.40
2023-04-07T02:28:38.512Z,8.30
2023-04-07T02:29:39.982Z,8.30
2023-04-07T02:30:41.917Z,8.20
2023-04-07T02:31:43.555Z,8.30
2023-04-07T02:32:45.976Z,8.20
2023-04-07T02:33:49.474Z,8.20
2023-04-07T02:34:50.945Z,8.20
2023-04-07T02:35:52.397Z,8.20
2023-04-07T02:36:54.125Z,8.10
2023-04-07T02:37:55.872Z,8.10
2023-04-07T02:38:57.313Z,8.10
2023-04-07T02:39:59.213Z,8.10
2023-04-07T02:41:00.853Z,8.10
2023-04-07T02:42:04.699Z,8.10
2023-04-07T02:43:06.376Z,8.00
2023-04-07T02:44:08.249Z,8.00
2023-04-07T02:45:11.545Z,8.10
2023-04-07T02:46:15.482Z,8.00
2023-04-07T02:47:18.167Z,8.00
2023-04-07T02:48:19.711Z,8.00
2023-04-07T02:49:21.358Z,8.00
2023-04-07T02:50:22.853Z,8.00
2023-04-07T02:51:24.513Z,8.00
2023-04-07T02:52:26.066Z,8.00
2023-04-07T02:53:28.871Z,7.90
2023-04-07T02:54:30.612Z,7.90
2023-04-07T02:55:32.570Z,7.90
2023-04-07T02:56:34.872Z,7.80
2023-04-07T02:57:36.410Z,7.80
2023-04-07T02:58:41.559Z,7.80
2023-04-07T02:59:43.246Z,7.80
2023-04-07T03:00:49.646Z,7.80
2023-04-07T03:01:56.180Z,7.70
2023-04-07T03:02:58.208Z,7.70
2023-04-07T03:04:01.383Z,7.70
2023-04-07T03:05:04.468Z,7.70
2023-04-07T03:06:06.690Z,7.70
2023-04-07T03:07:11.232Z,7.60
2023-04-07T03:08:13.300Z,7.60
2023-04-07T03:09:16.065Z,7.70
2023-04-07T03:10:17.801Z,7.70
2023-04-07T03:11:19.289Z,7.70
2023-04-07T03:12:21.235Z,7.60
2023-04-07T03:13:23.039Z,7.60
2023-04-07T03:14:24.887Z,7.60
2023-04-07T03:15:26.697Z,7.50
2023-04-07T03:16:28.254Z,7.50
2023-04-07T03:17:38.220Z,7.50
2023-04-07T03:18:40.012Z,7.50
2023-04-07T03:19:41.690Z,7.40
2023-04-07T03:20:44.636Z,7.40
2023-04-07T03:21:47.312Z,7.40
2023-04-07T03:22:49.456Z,7.40
2023-04-07T03:23:57.211Z,7.40
2023-04-07T03:24:58.730Z,7.40
2023-04-07T03:26:00.529Z,7.40
2023-04-07T03:27:06.095Z,7.50
2023-04-07T03:28:14.610Z,7.50
2023-04-07T03:29:16.420Z,7.50
2023-04-07T03:30:18.466Z,7.50
2023-04-07T03:31:21.380Z,7.50
2023-04-07T03:32:25.520Z,7.40
2023-04-07T03:33:27.123Z,7.50
2023-04-07T03:34:30.402Z,7.40
2023-04-07T03:35:33.487Z,7.40
2023-04-07T03:36:34.938Z,7.40
2023-04-07T03:37:39.335Z,7.50
2023-04-07T03:38:47.779Z,7.50
2023-04-07T03:39:52.175Z,7.40
2023-04-07T03:41:01.185Z,7.40
2023-04-07T03:42:03.328Z,7.40
2023-04-07T03:43:12.454Z,7.40
2023-04-07T03:44:13.869Z,7.40
2023-04-07T03:45:17.376Z,7.40
2023-04-07T03:46:23.359Z,7.40
2023-04-07T03:47:24.996Z,7.30
2023-04-07T03:48:31.937Z,7.30
2023-04-07T03:49:38.862Z,7.30
2023-04-07T03:50:41.765Z,7.30
2023-04-07T03:51:48.582Z,7.30
2023-04-07T03:52:52.230Z,7.30
2023-04-07T03:53:58.893Z,7.30
2023-04-07T03:55:06.999Z,7.30
2023-04-07T03:56:09.279Z,7.30
2023-04-07T03:57:22.600Z,7.20
2023-04-07T03:58:25.360Z,7.20
2023-04-07T03:59:27.101Z,7.20
2023-04-07T04:00:34.635Z,7.20
2023-04-07T04:01:41.970Z,7.20
2023-04-07T04:02:50.167Z,7.20
2023-04-07T04:03:54.827Z,7.20
2023-04-07T04:04:59.770Z,7.20
2023-04-07T04:06:01.585Z,7.20
2023-04-07T04:07:06.349Z,7.30
2023-04-07T04:08:13.496Z,7.30
2023-04-07T04:09:16.117Z,7.30
2023-04-07T04:10:21.405Z,7.30
2023-04-07T04:11:26.268Z,7.30
2023-04-07T04:12:33.584Z,7.40
2023-04-07T04:13:40.636Z,7.30
2023-04-07T04:14:42.080Z,7.30
2023-04-07T04:15:45.201Z,7.30
2023-04-07T04:16:50.139Z,7.30
2023-04-07T04:18:11.777Z,7.30
2023-04-07T04:19:13.812Z,7.40
2023-04-07T04:20:15.317Z,7.30
2023-04-07T04:21:23.077Z,7.40
2023-04-07T04:22:25.569Z,7.40
2023-04-07T04:23:30.193Z,7.40
2023-04-07T04:24:32.749Z,7.30
2023-04-07T04:25:39.593Z,7.30
2023-04-07T04:26:42.861Z,7.30
2023-04-07T04:27:47.094Z,7.30
2023-04-07T04:28:56.878Z,7.30
2023-04-07T04:29:59.264Z,7.30
2023-04-07T04:31:10.410Z,7.30
2023-04-07T04:32:17.756Z,7.30
2023-04-07T04:33:20.654Z,7.30
2023-04-07T04:34:30.085Z,7.20
2023-04-07T04:35:31.925Z,7.20
2023-04-07T04:36:41.946Z,7.20
2023-04-07T04:37:43.452Z,7.20
2023-04-07T04:38:47.898Z,7.20
2023-04-07T04:39:54.547Z,7.20
2023-04-07T04:40:57.843Z,7.20
2023-04-07T04:42:03.873Z,7.20
2023-04-07T04:43:09.888Z,7.20
2023-04-07T04:44:14.222Z,7.30
2023-04-07T04:45:17.165Z,7.30
2023-04-07T04:46:21.733Z,7.30
2023-04-07T04:47:24.571Z,7.30
2023-04-07T04:48:26.220Z,7.30
2023-04-07T04:49:28.023Z,7.30
2023-04-07T04:50:33.176Z,7.30
2023-04-07T04:51:36.559Z,7.30
2023-04-07T04:52:46.515Z,7.30
2023-04-07T04:53:54.981Z,7.30
2023-04-07T04:54:58.662Z,7.30
2023-04-07T04:56:01.578Z,7.20
2023-04-07T04:57:23.494Z,7.20
2023-04-07T04:58:25.046Z,7.30
2023-04-07T04:59:29.797Z,7.30
2023-04-07T05:00:35.620Z,7.30
2023-04-07T05:01:40.514Z,7.30
2023-04-07T05:02:47.105Z,7.30
2023-04-07T05:03:49.883Z,7.30
2023-04-07T05:05:01.308Z,7.30
2023-04-07T05:06:04.817Z,7.30
2023-04-07T05:07:06.924Z,7.40
2023-04-07T05:08:10.966Z,7.40
2023-04-07T05:09:13.922Z,7.40
2023-04-07T05:10:19.305Z,7.40
2023-04-07T05:11:24.240Z,7.40
2023-04-07T05:12:27.984Z,7.40
2023-04-07T05:13:34.177Z,7.40
2023-04-07T05:14:37.928Z,7.50
2023-04-07T05:15:42.368Z,7.50
2023-04-07T05:16:46.136Z,7.50
2023-04-07T05:17:53.170Z,7.50
2023-04-07T05:18:58.670Z,7.60
2023-04-07T05:20:01.602Z,7.60
2023-04-07T05:21:12.687Z,7.60
2023-04-07T05:22:15.053Z,7.60
2023-04-07T05:23:20.883Z,7.60
2023-04-07T05:24:29.013Z,7.60
2023-04-07T05:25:34.432Z,7.60
2023-04-07T05:26:39.044Z,7.60
2023-04-07T05:27:41.258Z,7.60
2023-04-07T05:28:47.700Z,7.60
2023-04-07T05:29:53.841Z,7.60
2023-04-07T05:31:01.580Z,7.60
2023-04-07T05:32:06.969Z,7.60
2023-04-07T05:33:09.368Z,7.60
2023-04-07T05:34:19.049Z,7.60
2023-04-07T05:35:25.588Z,7.50
2023-04-07T05:36:31.563Z,7.50
2023-04-07T05:37:33.401Z,7.50
2023-04-07T05:38:38.534Z,7.50
2023-04-07T05:39:46.415Z,7.60
2023-04-07T05:40:49.540Z,7.60
2023-04-07T05:42:02.204Z,7.60
2023-04-07T05:43:03.902Z,7.60
2023-04-07T05:44:08.251Z,7.60
2023-04-07T05:45:14.303Z,7.60
2023-04-07T05:46:19.706Z,7.60
2023-04-07T05:47:31.008Z,7.60
2023-04-07T05:48:32.384Z,7.60
2023-04-07T05:49:34.112Z,7.70
2023-04-07T05:50:41.760Z,7.70
2023-04-07T05:51:47.631Z,7.70
2023-04-07T05:52:51.275Z,7.70
2023-04-07T05:54:05.537Z,7.80
2023-04-07T05:55:07.566Z,7.70
2023-04-07T05:56:09.008Z,7.80
2023-04-07T05:57:17.029Z,7.80
2023-04-07T05:58:20.869Z,7.90
2023-04-07T05:59:25.678Z,7.90
2023-04-07T06:00:27.334Z,7.90
2023-04-07T06:01:37.825Z,7.90
2023-04-07T06:02:40.409Z,7.90
2023-04-07T06:03:46.406Z,8.00
2023-04-07T06:04:51.618Z,8.00
2023-04-07T06:05:54.654Z,8.00
2023-04-07T06:06:57.632Z,8.00
2023-04-07T06:07:59.115Z,8.00
2023-04-07T06:09:02.348Z,8.00
2023-04-07T06:10:03.977Z,8.00
2023-04-07T06:11:05.481Z,8.10
2023-04-07T06:12:09.378Z,8.10
2023-04-07T06:13:10.898Z,8.10
2023-04-07T06:14:12.683Z,8.10
2023-04-07T06:15:14.179Z,8.10
2023-04-07T06:16:17.310Z,8.10
2023-04-07T06:17:19.950Z,8.20
2023-04-07T06:18:23.017Z,8.20
2023-04-07T06:19:24.550Z,8.20
2023-04-07T06:20:27.780Z,8.30
2023-04-07T06:21:29.815Z,8.20
2023-04-07T06:22:31.248Z,8.20
2023-04-07T06:23:32.835Z,8.30
2023-04-07T06:24:34.716Z,8.30
2023-04-07T06:25:37.860Z,8.30
2023-04-07T06:26:40.518Z,8.30
2023-04-07T06:27:42.559Z,8.40
2023-04-07T06:28:43.969Z,8.40
2023-04-07T06:29:45.503Z,8.40
2023-04-07T06:30:47.201Z,8.50
2023-04-07T06:31:50.061Z,8.50
2023-04-07T06:32:53.751Z,8.50
2023-04-07T06:33:55.471Z,8.60
2023-04-07T06:34:57.674Z,8.60
2023-04-07T06:35:59.132Z,8.70
2023-04-07T06:37:01.635Z,8.70
2023-04-07T06:38:03.130Z,8.70
2023-04-07T06:39:05.794Z,8.70
2023-04-07T06:40:08.287Z,8.80
2023-04-07T06:41:16.780Z,8.80
2023-04-07T06:42:18.409Z,8.90
2023-04-07T06:43:29.727Z,8.90
2023-04-07T06:44:36.424Z,8.90
2023-04-07T06:45:38.525Z,8.90
2023-04-07T06:46:41.828Z,9.00
2023-04-07T06:47:43.476Z,9.00
2023-04-07T06:48:45.467Z,9.10
2023-04-07T06:49:46.878Z,9.10
2023-04-07T06:50:51.805Z,9.20
2023-04-07T06:51:53.282Z,9.20
2023-04-07T06:52:54.691Z,9.10
2023-04-07T06:53:56.153Z,9.10
2023-04-07T06:54:57.611Z,9.20
2023-04-07T06:56:06.661Z,9.30
2023-04-07T06:57:12.043Z,9.30
2023-04-07T06:58:13.554Z,9.40
2023-04-07T06:59:15.055Z,9.40
2023-04-07T07:00:17.101Z,9.40
2023-04-07T07:01:18.533Z,9.40
2023-04-07T07:02:20.645Z,9.40
2023-04-07T07:03:22.513Z,9.50
2023-04-07T07:04:24.462Z,9.50
2023-04-07T07:05:26.182Z,9.50
2023-04-07T07:06:28.087Z,9.40
2023-04-07T07:07:29.465Z,9.40
2023-04-07T07:08:31.442Z,9.40
2023-04-07T07:09:33.115Z,9.40
2023-04-07T07:10:34.990Z,9.40
2023-04-07T07:11:36.461Z,9.40
2023-04-07T07:12:38.265Z,9.40
2023-04-07T07:13:39.890Z,9.40
2023-04-07T07:14:41.424Z,9.40
2023-04-07T07:15:43.368Z,9.40
2023-04-07T07:16:45.039Z,9.20
2023-04-07T07:17:46.805Z,9.10
2023-04-07T07:18:48.342Z,9.10
2023-04-07T07:19:50.213Z,9.10
2023-04-07T07:20:51.703Z,9.10
2023-04-07T07:21:53.154Z,9.00
2023-04-07T07:22:54.737Z,9.00
2023-04-07T07:23:56.763Z,9.00
2023-04-07T07:24:58.127Z,9.00
2023-04-07T07:25:59.550Z,9.00
2023-04-07T07:27:02.458Z,9.00
2023-04-07T07:28:03.849Z,9.10
2023-04-07T07:29:05.494Z,9.20
2023-04-07T07:30:07.661Z,9.20
2023-04-07T07:31:15.980Z,9.30
2023-04-07T07:32:17.434Z,9.30
2023-04-07T07:33:18.871Z,9.40
2023-04-07T07:34:20.783Z,9.40
2023-04-07T07:35:22.781Z,9.40
2023-04-07T07:36:24.228Z,9.40
2023-04-07T07:37:25.624Z,9.40
2023-04-07T07:38:27.674Z,9.50
2023-04-07T07:39:29.960Z,9.60
2023-04-07T07:40:31.523Z,9.70
2023-04-07T07:41:33.126Z,9.80
2023-04-07T07:42:34.580Z,9.90
2023-04-07T07:43:37.133Z,9.90
2023-04-07T07:44:38.752Z,9.90
2023-04-07T07:45:40.245Z,10.10
2023-04-07T07:46:41.984Z,10.00
2023-04-07T07:47:43.633Z,9.90
2023-04-07T07:48:46.568Z,10.00
2023-04-07T07:49:48.037Z,10.00
2023-04-07T07:50:50.660Z,10.00
2023-04-07T07:51:53.182Z,10.00
2023-04-07T07:52:54.602Z,10.00
2023-04-07T07:53:56.065Z,10.00
2023-04-07T07:54:57.586Z,10.10
2023-04-07T07:55:59.312Z,10.10
2023-04-07T07:57:00.855Z,10.00
2023-04-07T07:58:02.472Z,10.10
2023-04-07T07:59:09.920Z,10.30
2023-04-07T08:00:12.152Z,10.40
2023-04-07T08:01:16.554Z,10.40
2023-04-07T08:02:18.124Z,10.20
2023-04-07T08:03:24.658Z,10.30
2023-04-07T08:04:28.233Z,10.20
2023-04-07T08:05:31.026Z,10.20
2023-04-07T08:06:34.042Z,10.30
2023-04-07T08:07:39.276Z,10.40
2023-04-07T08:08:42.187Z,10.50
2023-04-07T08:09:43.969Z,10.50
2023-04-07T08:10:49.496Z,10.60
2023-04-07T08:11:57.905Z,10.70
2023-04-07T08:13:08.090Z,10.70
2023-04-07T08:14:12.772Z,10.80
2023-04-07T08:15:17.273Z,10.80
2023-04-07T08:16:19.450Z,10.90
2023-04-07T08:17:22.643Z,10.90
2023-04-07T08:18:29.771Z,11.00
2023-04-07T08:19:36.382Z,11.10
2023-04-07T08:20:39.109Z,11.10
2023-04-07T08:21:44.537Z,11.20
2023-04-07T08:22:49.793Z,11.10
2023-04-07T08:23:54.293Z,11.10
2023-04-07T08:24:58.814Z,10.90
2023-04-07T08:26:06.883Z,10.70
2023-04-07T08:27:08.363Z,10.80
2023-04-07T08:28:09.805Z,10.80
2023-04-07T08:29:12.928Z,10.70
2023-04-07T08:30:19.921Z,10.80
2023-04-07T08:31:26.261Z,10.80
2023-04-07T08:32:39.149Z,10.90
2023-04-07T08:33:41.556Z,10.90
2023-04-07T08:34:43.187Z,10.90
2023-04-07T08:35:44.886Z,10.90
2023-04-07T08:36:46.695Z,10.80
2023-04-07T08:37:48.924Z,10.90
2023-04-07T08:38:50.704Z,10.80
2023-04-07T08:39:52.132Z,10.80
2023-04-07T08:41:00.991Z,10.70
2023-04-07T08:42:02.796Z,10.60
2023-04-07T08:43:10.052Z,10.60
2023-04-07T08:44:16.826Z,10.60
2023-04-07T08:45:22.364Z,10.60
2023-04-07T08:46:28.163Z,10.70
2023-04-07T08:47:33.511Z,10.60
2023-04-07T08:48:37.912Z,10.30
2023-04-07T08:49:46.056Z,10.30
2023-04-07T08:50:52.995Z,10.20
2023-04-07T08:51:56.805Z,10.10
2023-04-07T08:53:03.394Z,10.10
2023-04-07T08:54:21.694Z,10.20
2023-04-07T08:55:23.617Z,10.20
2023-04-07T08:56:25.981Z,10.20
2023-04-07T08:57:32.844Z,10.20
2023-04-07T08:58:36.220Z,10.30
2023-04-07T08:59:39.326Z,10.30
2023-04-07T09:00:51.754Z,10.20
2023-04-07T09:01:57.690Z,10.30
2023-04-07T09:03:01.536Z,10.20
2023-04-07T09:04:11.881Z,10.10
2023-04-07T09:05:15.337Z,10.00
2023-04-07T09:06:19.821Z,9.80
2023-04-07T09:07:27.123Z,9.70
2023-04-07T09:08:33.062Z,9.20
2023-04-07T09:09:35.020Z,8.90
2023-04-07T09:10:37.766Z,8.90
2023-04-07T09:11:41.068Z,8.90
2023-04-07T09:12:43.878Z,8.90
2023-04-07T09:13:49.463Z,8.90
2023-04-07T09:14:52.788Z,9.00
2023-04-07T09:15:54.437Z,9.10
2023-04-07T09:16:56.713Z,9.00
2023-04-07T09:18:01.273Z,8.90
2023-04-07T09:19:03.267Z,9.00
2023-04-07T09:20:05.030Z,8.50
2023-04-07T09:21:08.081Z,8.60
2023-04-07T09:22:12.444Z,8.60
2023-04-07T09:23:31.148Z,8.50
2023-04-07T09:24:33.910Z,8.60
2023-04-07T09:25:35.675Z,8.70
2023-04-07T09:26:37.104Z,8.70
2023-04-07T09:27:38.731Z,8.70
2023-04-07T09:28:44.581Z,8.80
2023-04-07T09:29:47.845Z,8.80
2023-04-07T09:30:55.831Z,8.60
2023-04-07T09:31:58.219Z,8.70
2023-04-07T09:33:01.457Z,8.70
2023-04-07T09:34:05.444Z,8.70
2023-04-07T09:35:07.164Z,8.60
2023-04-07T09:36:09.034Z,8.60
2023-04-07T09:37:22.562Z,8.70
2023-04-07T09:38:36.639Z,8.80
2023-04-07T09:39:50.727Z,8.90
2023-04-07T09:41:05.052Z,8.90
2023-04-07T09:42:07.867Z,9.00
2023-04-07T09:43:18.798Z,9.10
2023-04-07T09:44:24.076Z,8.80
2023-04-07T09:46:33.880Z,8.80
2023-04-07T09:47:35.490Z,8.90
2023-04-07T09:48:37.553Z,8.90
2023-04-07T09:49:53.779Z,8.90
2023-04-07T09:51:12.994Z,8.80
2023-04-07T09:52:14.442Z,8.80
2023-04-07T09:53:17.084Z,8.80
2023-04-07T09:54:32.731Z,8.80
2023-04-07T09:55:35.325Z,8.80
2023-04-07T09:56:37.049Z,8.80
2023-04-07T09:57:41.219Z,8.80
2023-04-07T09:58:45.333Z,8.90
2023-04-07T09:59:49.121Z,9.00
2023-04-07T10:00:50.879Z,9.00
2023-04-07T10:01:53.882Z,8.90
2023-04-07T10:02:58.178Z,9.10
2023-04-07T10:04:01.429Z,9.10
2023-04-07T10:05:03.326Z,9.20
2023-04-07T10:06:06.478Z,9.30
2023-04-07T10:07:07.895Z,9.30
2023-04-07T10:08:10.025Z,9.40
2023-04-07T10:09:11.871Z,9.50
2023-04-07T10:10:13.415Z,9.60
2023-04-07T10:11:16.173Z,9.60
2023-04-07T10:12:18.599Z,9.40
2023-04-07T10:13:22.117Z,9.40
2023-04-07T10:14:30.986Z,9.50
2023-04-07T10:15:33.273Z,9.60
2023-04-07T10:16:35.382Z,9.60
2023-04-07T10:17:37.702Z,9.70
2023-04-07T10:18:40.046Z,9.80
2023-04-07T10:19:41.673Z,9.90
2023-04-07T10:20:43.334Z,10.00
2023-04-07T10:21:45.429Z,10.00
2023-04-07T10:22:50.189Z,10.10
2023-04-07T10:24:28.500Z,10.20
2023-04-07T10:25:30.722Z,10.20
2023-04-07T10:26:36.120Z,10.30
2023-04-07T10:27:50.368Z,10.40
2023-04-07T10:28:57.083Z,10.40
2023-04-07T10:30:00.293Z,10.50
2023-04-07T10:31:03.552Z,10.50
2023-04-07T10:32:05.156Z,10.40
2023-04-07T10:33:06.600Z,10.40
2023-04-07T10:34:08.105Z,10.50
2023-04-07T10:35:09.744Z,10.50
2023-04-07T10:36:11.411Z,10.60
2023-04-07T10:37:14.280Z,10.60
2023-04-07T10:38:16.651Z,10.50
2023-04-07T10:39:18.379Z,10.60
2023-04-07T10:40:20.124Z,10.60
2023-04-07T10:41:38.003Z,10.60
2023-04-07T10:42:39.572Z,10.60
2023-04-07T10:43:42.036Z,10.70
2023-04-07T10:44:43.697Z,10.60
2023-04-07T10:45:59.025Z,10.40
2023-04-07T10:47:04.931Z,10.40
2023-04-07T10:48:13.418Z,10.30
2023-04-07T10:49:18.642Z,9.90
2023-04-07T10:50:22.384Z,9.80
2023-04-07T10:51:24.269Z,9.70
2023-04-07T10:52:25.974Z,9.70
2023-04-07T10:53:27.458Z,9.70
2023-04-07T10:54:29.549Z,9.60
2023-04-07T10:55:32.601Z,9.50
2023-04-07T10:57:10.273Z,9.30
2023-04-07T10:58:25.912Z,9.30
2023-04-07T10:59:28.128Z,9.30
2023-04-07T11:00:29.517Z,9.30
2023-04-07T11:01:31.017Z,9.40
2023-04-07T11:02:33.055Z,9.40
2023-04-07T11:03:36.908Z,9.50
2023-04-07T11:04:44.101Z,9.40
2023-04-07T11:05:45.920Z,9.20
2023-04-07T11:06:48.329Z,9.20
2023-04-07T11:07:54.417Z,9.30
2023-04-07T11:08:56.957Z,9.10
2023-04-07T11:10:10.980Z,9.10
2023-04-07T11:11:14.700Z,9.30
2023-04-07T11:12:26.465Z,9.40
2023-04-07T11:13:28.330Z,9.60
2023-04-07T11:14:31.903Z,9.60
2023-04-07T11:15:38.559Z,9.60
2023-04-07T11:16:43.834Z,9.60
2023-04-07T11:17:45.295Z,9.40
2023-04-07T11:18:47.926Z,9.50
2023-04-07T11:19:53.771Z,9.60
2023-04-07T11:20:58.606Z,9.70
2023-04-07T11:22:29.324Z,9.70
2023-04-07T11:23:39.124Z,9.70
2023-04-07T11:24:40.827Z,9.80
2023-04-07T11:25:47.148Z,10.00
2023-04-07T11:26:50.498Z,10.00
2023-04-07T11:27:52.780Z,10.00
2023-04-07T11:28:55.910Z,10.20
2023-04-07T11:29:57.641Z,10.30
2023-04-07T11:31:00.291Z,10.20
2023-04-07T11:32:02.805Z,10.40
2023-04-07T11:33:04.777Z,10.50
2023-04-07T11:34:06.387Z,10.70
2023-04-07T11:35:08.453Z,10.60
2023-04-07T11:36:10.019Z,10.60
2023-04-07T11:37:27.252Z,10.30
2023-04-07T11:38:38.754Z,10.30
2023-04-07T11:39:40.693Z,10.20
2023-04-07T11:40:42.416Z,10.20
2023-04-07T11:41:48.766Z,10.10
2023-04-07T11:42:50.250Z,10.10
2023-04-07T11:44:05.349Z,10.20
2023-04-07T11:45:17.023Z,10.20
2023-04-07T11:46:19.446Z,10.40
2023-04-07T11:47:21.609Z,10.50
2023-04-07T11:48:27.048Z,10.60
2023-04-07T11:49:29.232Z,10.60
2023-04-07T11:50:41.199Z,10.40
2023-04-07T11:51:46.095Z,10.40
2023-04-07T11:52:48.756Z,10.40
2023-04-07T11:53:57.051Z,10.50
2023-04-07T11:55:00.232Z,10.60
2023-04-07T11:56:10.303Z,10.80
2023-04-07T11:57:12.906Z,10.90
2023-04-07T11:58:14.731Z,11.00
2023-04-07T11:59:20.519Z,11.10
2023-04-07T12:00:23.443Z,11.10
2023-04-07T12:01:40.276Z,11.00
2023-04-07T12:02:42.520Z,11.10
2023-04-07T12:04:04.263Z,11.10
2023-04-07T12:05:07.186Z,11.20
2023-04-07T12:06:08.728Z,11.30
2023-04-07T12:07:11.372Z,11.30
2023-04-07T12:08:15.992Z,11.30
2023-04-07T12:09:31.058Z,11.10
2023-04-07T12:10:35.125Z,11.00
2023-04-07T12:11:37.240Z,11.00
2023-04-07T12:12:39.611Z,10.70
2023-04-07T12:13:42.543Z,10.70
2023-04-07T12:14:43.921Z,10.80
2023-04-07T12:15:45.660Z,10.90
2023-04-07T12:16:47.095Z,11.00
2023-04-07T12:17:49.511Z,11.10
2023-04-07T12:18:54.575Z,11.10
2023-04-07T12:19:56.269Z,11.20
2023-04-07T12:20:59.260Z,11.10
2023-04-07T12:22:00.707Z,11.20
2023-04-07T12:23:02.401Z,11.20
2023-04-07T12:24:03.867Z,11.30
2023-04-07T12:25:05.817Z,11.10
2023-04-07T12:26:07.347Z,11.10
2023-04-07T12:27:09.864Z,10.90
2023-04-07T12:28:11.267Z,11.00
2023-04-07T12:29:13.136Z,11.10
2023-04-07T12:30:14.686Z,11.10
2023-04-07T12:31:16.344Z,11.10
2023-04-07T12:32:17.828Z,11.10
2023-04-07T12:33:19.639Z,11.00
2023-04-07T12:34:21.542Z,11.00
2023-04-07T12:35:24.267Z,11.00
2023-04-07T12:36:27.771Z,11.00
2023-04-07T12:37:29.277Z,10.90
2023-04-07T12:38:30.699Z,10.90
2023-04-07T12:39:33.418Z,11.00
2023-04-07T12:40:35.897Z,11.10
2023-04-07T12:41:38.759Z,11.10
2023-04-07T12:42:40.586Z,11.10
2023-04-07T12:43:42.089Z,11.20
2023-04-07T12:44:43.463Z,11.20
2023-04-07T12:45:44.968Z,11.20
2023-04-07T12:46:46.984Z,11.20
2023-04-07T12:47:48.729Z,11.00
2023-04-07T12:48:51.408Z,10.90
2023-04-07T12:49:52.803Z,10.80
2023-04-07T12:50:54.925Z,10.60
2023-04-07T12:51:57.596Z,10.20
2023-04-07T12:53:00.104Z,10.30
2023-04-07T12:54:02.525Z,10.30
2023-04-07T12:55:04.840Z,10.30
2023-04-07T12:56:06.486Z,10.30
2023-04-07T12:57:08.212Z,10.30
2023-04-07T12:58:09.650Z,10.10
2023-04-07T12:59:11.105Z,10.00
2023-04-07T13:00:13.844Z,9.90
2023-04-07T13:01:15.358Z,9.90
2023-04-07T13:02:19.053Z,9.90
2023-04-07T13:03:20.931Z,10.00
2023-04-07T13:04:22.857Z,10.00
2023-04-07T13:05:24.478Z,10.10
2023-04-07T13:06:25.925Z,10.10
2023-04-07T13:07:27.335Z,10.10
2023-04-07T13:08:29.291Z,10.20
2023-04-07T13:09:30.717Z,10.20
2023-04-07T13:10:32.189Z,10.20
2023-04-07T13:11:33.605Z,10.20
2023-04-07T13:12:35.848Z,10.30
2023-04-07T13:13:37.324Z,10.40
2023-04-07T13:14:49.320Z,10.30
2023-04-07T13:15:58.983Z,10.20
2023-04-07T13:17:00.660Z,10.20
2023-04-07T13:18:02.558Z,10.30
2023-04-07T13:19:04.359Z,10.30
2023-04-07T13:20:07.522Z,10.30
2023-04-07T13:21:42.959Z,10.40
2023-04-07T13:22:32.233Z,10.50
2023-04-07T13:23:42.845Z,10.40
2023-04-07T13:24:45.669Z,10.50
2023-04-07T13:25:47.082Z,10.60
2023-04-07T13:26:48.936Z,10.60
2023-04-07T13:27:50.972Z,10.70
2023-04-07T13:28:52.346Z,10.70
2023-04-07T13:29:53.841Z,10.70
2023-04-07T13:30:55.281Z,10.70
2023-04-07T13:32:07.238Z,10.70
2023-04-07T13:33:08.678Z,10.60
2023-04-07T13:34:10.322Z,10.70
2023-04-07T13:35:11.736Z,10.40
2023-04-07T13:36:13.146Z,10.40
2023-04-07T13:37:14.634Z,10.30
2023-04-07T13:38:16.293Z,10.30
2023-04-07T13:39:17.886Z,10.40
2023-04-07T13:40:19.490Z,10.40
2023-04-07T13:41:21.691Z,10.40
2023-04-07T13:42:23.114Z,10.40
2023-04-07T13:43:24.822Z,10.40
2023-04-07T13:44:27.818Z,10.40
2023-04-07T13:45:29.574Z,10.40
2023-04-07T13:46:31.222Z,10.40
2023-04-07T13:47:36.167Z,10.50
2023-04-07T13:48:37.858Z,10.60
2023-04-07T13:49:39.300Z,10.70
2023-04-07T13:50:40.954Z,10.70
2023-04-07T13:51:42.406Z,10.80
2023-04-07T13:52:43.876Z,10.90
2023-04-07T13:53:45.961Z,10.90
2023-04-07T13:54:47.785Z,10.80
2023-04-07T13:55:49.460Z,10.90
2023-04-07T13:56:51.972Z,10.90
2023-04-07T13:57:53.602Z,11.00
2023-04-07T13:58:55.219Z,11.10
2023-04-07T13:59:56.729Z,11.00
2023-04-07T14:00:58.829Z,10.80
2023-04-07T14:02:00.605Z,10.80
2023-04-07T14:03:04.298Z,10.90
2023-04-07T14:04:06.718Z,10.90
2023-04-07T14:05:08.393Z,11.00
2023-04-07T14:06:09.796Z,11.00
2023-04-07T14:07:11.456Z,11.10
2023-04-07T14:08:13.468Z,11.10
2023-04-07T14:09:15.700Z,10.80
2023-04-07T14:10:17.593Z,10.80